Time;durP1;ratioP1;P1;durP2;ratioP2;P2;SDS_P1;SDS_P2;PMS_P1;PMS_P2;Temp;Humidity;BMP_temperature;BMP_pressure;BME280_temperature;BME280_humidity;BME280_pressure;Samples;Min_cycle;Max_cycle;Signal;HPM_P1;HPM_P2
2024/01/04 00:00:52;;;;;;;1.95;0.45;;;9.20;83.80;;;;;;5012377;28;20379;-63
2024/01/04 00:03:19;;;;;;;1.90;0.52;;;9.20;83.60;;;;;;5011198;28;20049;-63
2024/01/04 00:05:46;;;;;;;2.03;0.30;;;9.20;83.60;;;;;;4999875;28;20474;-63
2024/01/04 00:08:11;;;;;;;2.20;0.50;;;9.10;83.40;;;;;;5003811;28;20555;-62
2024/01/04 00:10:37;;;;;;;2.50;0.52;;;9.10;83.40;;;;;;5007024;28;20039;-62
2024/01/04 00:13:02;;;;;;;1.52;0.28;;;9.10;83.40;;;;;;4999696;28;20022;-61
2024/01/04 00:15:28;;;;;;;3.83;0.35;;;9.10;83.30;;;;;;5003098;28;20068;-63
2024/01/04 00:17:54;;;;;;;3.75;0.50;;;9.10;83.20;;;;;;5010543;28;20037;-62
2024/01/04 00:20:19;;;;;;;1.23;0.32;;;9.10;83.90;;;;;;5007334;28;20069;-63
2024/01/04 00:22:45;;;;;;;2.83;0.50;;;9.10;83.00;;;;;;5005011;28;20117;-64
2024/01/04 00:25:11;;;;;;;2.97;0.32;;;9.10;82.90;;;;;;5008985;28;20452;-62
2024/01/04 00:27:36;;;;;;;1.52;0.30;;;9.00;82.70;;;;;;5002426;28;20034;-63
2024/01/04 00:30:02;;;;;;;2.15;0.30;;;9.00;82.70;;;;;;5000334;28;20117;-62
2024/01/04 00:32:28;;;;;;;4.60;0.30;;;9.00;82.70;;;;;;5001023;28;20030;-63
2024/01/04 00:34:53;;;;;;;2.17;0.40;;;9.00;83.40;;;;;;5001639;28;20045;-63
2024/01/04 00:37:19;;;;;;;2.40;0.40;;;9.00;82.50;;;;;;5007464;28;20026;-63
2024/01/04 00:39:44;;;;;;;2.60;0.40;;;9.00;82.60;;;;;;5005032;28;20030;-63
2024/01/04 00:42:10;;;;;;;2.30;0.40;;;9.00;82.60;;;;;;5001117;28;20036;-62
2024/01/04 00:44:36;;;;;;;3.65;0.50;;;9.00;82.50;;;;;;5000628;28;20041;-63
2024/01/04 00:47:01;;;;;;;3.25;0.40;;;8.90;82.40;;;;;;5003585;28;20465;-62
2024/01/04 00:49:31;;;;;;;1.23;0.40;;;8.90;82.40;;;;;;5003120;28;20528;-63
2024/01/04 00:51:56;;;;;;;2.20;0.40;;;8.90;82.40;;;;;;5007772;28;20559;-63
2024/01/04 00:54:22;;;;;;;2.38;0.35;;;8.90;82.40;;;;;;5007485;28;20050;-63
2024/01/04 00:56:47;;;;;;;0.77;0.25;;;8.90;82.30;;;;;;4997318;28;20411;-62
2024/01/04 00:59:13;;;;;;;0.80;0.30;;;8.90;82.40;;;;;;5004149;28;20030;-63
2024/01/04 01:01:39;;;;;;;3.47;0.30;;;8.90;82.30;;;;;;5005492;28;20030;-63
2024/01/04 01:04:04;;;;;;;3.63;0.28;;;8.90;82.30;;;;;;5008814;28;20133;-63
2024/01/04 01:06:30;;;;;;;3.75;0.28;;;8.90;82.20;;;;;;5002801;28;20498;-62
2024/01/04 01:08:55;;;;;;;0.73;0.20;;;8.90;82.20;;;;;;5009870;28;20068;-62
2024/01/04 01:11:21;;;;;;;1.70;0.40;;;8.90;82.30;;;;;;5007099;28;20062;-63
2024/01/04 01:13:46;;;;;;;1.33;0.28;;;8.90;82.20;;;;;;5000357;28;20030;-63
2024/01/04 01:16:15;;;;;;;6.40;0.80;;;9.00;82.30;;;;;;5007199;28;20758;-62
2024/01/04 01:18:43;;;;;;;5.22;0.60;;;8.90;82.10;;;;;;5002589;28;20482;-61
2024/01/04 01:21:08;;;;;;;3.60;0.57;;;8.90;82.00;;;;;;5002518;28;20045;-63
2024/01/04 01:23:34;;;;;;;3.22;0.75;;;9.00;82.00;;;;;;5001669;28;20041;-62
2024/01/04 01:26:02;;;;;;;3.70;0.55;;;8.90;81.90;;;;;;4999564;28;20118;-62
2024/01/04 01:28:28;;;;;;;2.55;0.38;;;8.90;81.70;;;;;;5003556;28;20100;-62
2024/01/04 01:30:53;;;;;;;1.60;0.30;;;8.90;81.70;;;;;;5007913;28;20029;-62
2024/01/04 01:33:19;;;;;;;2.88;0.60;;;8.90;81.60;;;;;;5006038;28;20037;-63
2024/01/04 01:35:45;;;;;;;4.35;0.47;;;9.00;81.60;;;;;;5001362;28;20194;-63
2024/01/04 01:38:10;;;;;;;2.88;0.70;;;8.90;81.30;;;;;;5008360;28;20092;-62
2024/01/04 01:40:36;;;;;;;3.15;0.40;;;9.00;81.20;;;;;;4995363;28;20034;-63
2024/01/04 01:43:02;;;;;;;3.35;0.60;;;9.00;81.20;;;;;;5005141;28;20116;-63
2024/01/04 01:45:27;;;;;;;3.65;0.60;;;9.00;81.90;;;;;;5007224;28;20062;-60
2024/01/04 01:47:54;;;;;;;3.90;0.68;;;9.00;81.00;;;;;;5008532;28;20030;-62
2024/01/04 01:50:22;;;;;;;2.58;0.40;;;9.00;80.80;;;;;;5002656;28;20049;-62
2024/01/04 01:52:51;;;;;;;3.22;0.50;;;9.00;80.70;;;;;;5000753;28;20034;-63
2024/01/04 01:55:17;;;;;;;1.83;0.52;;;9.00;81.30;;;;;;5007602;28;20026;-62
2024/01/04 01:57:43;;;;;;;2.67;0.30;;;9.00;80.50;;;;;;5006435;28;20034;-59
2024/01/04 02:00:10;;;;;;;2.85;0.35;;;9.00;80.40;;;;;;5002232;28;20208;-63
2024/01/04 02:02:37;;;;;;;2.47;0.52;;;9.00;80.30;;;;;;5000445;28;20502;-62
2024/01/04 02:05:02;;;;;;;4.00;0.57;;;9.10;80.10;;;;;;5002285;28;20034;-62
2024/01/04 02:07:29;;;;;;;4.03;0.40;;;9.10;80.10;;;;;;5002374;28;20026;-63
2024/01/04 02:09:55;;;;;;;3.85;0.47;;;9.10;80.00;;;;;;5004471;28;20030;-63
2024/01/04 02:12:20;;;;;;;1.48;0.40;;;9.10;80.00;;;;;;5000450;28;20409;-61
2024/01/04 02:14:48;;;;;;;4.55;0.47;;;9.10;80.00;;;;;;4997079;28;20027;-63
2024/01/04 02:17:13;;;;;;;3.45;0.50;;;9.10;80.00;;;;;;5002437;28;20092;-63
2024/01/04 02:19:40;;;;;;;3.88;0.47;;;9.10;79.80;;;;;;5006992;28;20038;-63
2024/01/04 02:22:05;;;;;;;1.85;0.38;;;9.10;79.60;;;;;;5004508;28;20030;-62
2024/01/04 02:24:31;;;;;;;1.73;0.30;;;9.10;79.60;;;;;;4998659;28;20045;-63
2024/01/04 02:26:57;;;;;;;4.03;0.40;;;9.10;79.60;;;;;;4997368;28;20167;-61
2024/01/04 02:29:22;;;;;;;2.25;0.35;;;9.10;79.60;;;;;;4996166;28;20044;-61
2024/01/04 02:31:51;;;;;;;2.25;0.35;;;9.10;79.40;;;;;;5006059;28;20053;-62
2024/01/04 02:34:16;;;;;;;3.03;0.20;;;9.10;79.40;;;;;;5004310;28;20037;-61
2024/01/04 02:36:42;;;;;;;1.05;0.30;;;9.10;79.40;;;;;;5006751;28;20572;-63
2024/01/04 02:39:09;;;;;;;1.83;0.30;;;9.10;79.50;;;;;;4998132;28;20065;-62
2024/01/04 02:41:34;;;;;;;1.55;0.32;;;9.10;79.40;;;;;;4993313;28;20030;-62
2024/01/04 02:44:00;;;;;;;1.48;0.40;;;9.10;79.40;;;;;;5001814;28;20498;-61
2024/01/04 02:46:26;;;;;;;1.90;0.38;;;9.10;79.40;;;;;;5005591;28;20109;-63
2024/01/04 02:48:51;;;;;;;0.55;0.20;;;9.10;79.40;;;;;;5004345;28;20513;-64
2024/01/04 02:51:17;;;;;;;2.10;0.20;;;9.10;79.50;;;;;;5000334;28;20084;-61
2024/01/04 02:53:42;;;;;;;2.60;0.35;;;9.10;79.50;;;;;;4999594;28;20042;-62
2024/01/04 02:56:08;;;;;;;0.65;0.20;;;9.10;79.60;;;;;;5001829;28;20056;-62
2024/01/04 02:58:33;;;;;;;0.82;0.20;;;9.10;79.60;;;;;;5006456;28;20482;-63
2024/01/04 03:00:59;;;;;;;2.63;0.30;;;9.10;79.70;;;;;;5006356;28;20196;-63
2024/01/04 03:03:24;;;;;;;1.90;0.15;;;9.00;79.70;;;;;;5001474;28;20034;-63
2024/01/04 03:05:51;;;;;;;1.75;0.40;;;9.10;79.80;;;;;;4999628;28;20057;-61
2024/01/04 03:08:16;;;;;;;1.63;0.43;;;9.00;79.90;;;;;;5001711;28;20107;-62
2024/01/04 03:10:42;;;;;;;1.20;0.40;;;9.10;80.10;;;;;;5010138;28;20560;-62
2024/01/04 03:13:07;;;;;;;1.33;0.28;;;9.00;80.10;;;;;;5004951;28;20113;-64
2024/01/04 03:15:33;;;;;;;3.70;0.40;;;9.00;80.10;;;;;;5004732;28;20030;-62
2024/01/04 03:17:59;;;;;;;1.00;0.30;;;9.00;80.10;;;;;;5000204;28;20525;-62
2024/01/04 03:20:24;;;;;;;2.25;0.30;;;9.00;80.10;;;;;;4999137;28;20044;-62
2024/01/04 03:22:50;;;;;;;1.90;0.52;;;9.00;80.10;;;;;;5004850;28;20394;-61
2024/01/04 03:25:15;;;;;;;2.17;0.40;;;9.10;80.20;;;;;;5002503;28;20030;-64
2024/01/04 03:27:42;;;;;;;2.60;0.40;;;9.00;80.10;;;;;;4999428;28;20041;-59
2024/01/04 03:30:08;;;;;;;4.95;0.45;;;9.00;80.10;;;;;;4998399;28;20111;-62
2024/01/04 03:32:34;;;;;;;2.10;0.45;;;9.00;80.10;;;;;;5006747;28;20068;-63
2024/01/04 03:34:59;;;;;;;3.50;0.50;;;9.00;80.10;;;;;;5006215;28;20033;-63
2024/01/04 03:37:25;;;;;;;3.15;0.60;;;9.00;80.30;;;;;;5002376;28;20502;-61
2024/01/04 03:39:51;;;;;;;2.38;0.40;;;9.00;80.40;;;;;;5002239;28;20342;-62
2024/01/04 03:42:17;;;;;;;2.45;0.30;;;9.00;80.40;;;;;;5002079;28;20033;-62
2024/01/04 03:44:43;;;;;;;2.80;0.50;;;9.00;80.40;;;;;;5000531;28;20165;-63
2024/01/04 03:47:09;;;;;;;4.45;0.80;;;9.00;80.50;;;;;;5005529;28;20121;-62
2024/01/04 03:49:35;;;;;;;3.90;0.50;;;9.00;80.60;;;;;;4996723;28;20041;-62
2024/01/04 03:52:01;;;;;;;1.95;0.50;;;9.10;80.80;;;;;;4998531;28;20054;-61
2024/01/04 03:54:27;;;;;;;1.95;0.40;;;9.00;80.80;;;;;;4993887;28;20054;-63
2024/01/04 03:56:53;;;;;;;4.53;0.70;;;9.10;80.80;;;;;;4998237;28;20034;-62
2024/01/04 03:59:19;;;;;;;3.15;0.50;;;9.00;80.90;;;;;;5005608;28;20041;-62
2024/01/04 04:01:45;;;;;;;3.05;0.57;;;9.00;80.90;;;;;;5004256;28;20050;-63
2024/01/04 04:04:11;;;;;;;3.90;0.57;;;9.00;81.00;;;;;;5001695;28;20045;-62
2024/01/04 04:06:37;;;;;;;3.42;0.40;;;9.00;81.10;;;;;;4998568;28;20038;-64
2024/01/04 04:09:02;;;;;;;5.40;0.55;;;9.00;81.30;;;;;;5004808;28;20052;-63
2024/01/04 04:11:28;;;;;;;2.58;0.40;;;9.00;81.30;;;;;;5002805;28;20080;-63
2024/01/04 04:13:54;;;;;;;4.05;0.60;;;9.00;81.40;;;;;;5004874;28;20057;-62
2024/01/04 04:16:20;;;;;;;2.42;0.43;;;9.00;81.30;;;;;;5004380;28;20354;-63
2024/01/04 04:18:45;;;;;;;3.33;0.30;;;8.90;81.30;;;;;;5001770;28;20077;-64
2024/01/04 04:21:21;;;;;;;3.90;0.45;;;8.90;81.20;;;;;;5002109;28;20061;-63
2024/01/04 04:23:49;;;;;;;2.42;0.40;;;9.00;81.30;;;;;;5000936;28;20037;-63
2024/01/04 04:26:21;;;;;;;5.05;0.70;;;8.90;81.30;;;;;;5003874;28;20030;-62
2024/01/04 04:28:48;;;;;;;1.83;0.32;;;8.90;81.30;;;;;;4997727;28;20038;-62
2024/01/04 04:31:14;;;;;;;3.70;0.40;;;8.90;81.30;;;;;;4999175;28;20511;-63
2024/01/04 04:33:40;;;;;;;1.15;0.22;;;8.90;81.30;;;;;;5008862;28;20484;-62
2024/01/04 04:36:07;;;;;;;1.50;0.38;;;8.90;81.30;;;;;;5012144;28;20045;-64
2024/01/04 04:38:34;;;;;;;1.38;0.22;;;8.90;81.20;;;;;;5005845;28;20085;-63
2024/01/04 04:41:00;;;;;;;2.70;0.40;;;8.90;81.20;;;;;;5008172;28;20056;-64
2024/01/04 04:43:26;;;;;;;5.82;0.57;;;8.90;81.20;;;;;;5004953;28;20557;-61
2024/01/04 04:45:51;;;;;;;1.52;0.30;;;8.90;81.30;;;;;;5004796;28;20117;-63
2024/01/04 04:48:17;;;;;;;2.00;0.40;;;8.90;81.20;;;;;;5003609;28;20036;-61
2024/01/04 04:50:42;;;;;;;2.60;0.43;;;8.90;81.20;;;;;;5007258;28;20056;-62
2024/01/04 04:53:08;;;;;;;3.30;0.55;;;8.90;81.20;;;;;;5003781;28;20390;-63
2024/01/04 04:55:33;;;;;;;3.92;0.43;;;8.90;81.00;;;;;;5001934;28;20051;-62
2024/01/04 04:57:59;;;;;;;1.70;0.40;;;8.90;81.00;;;;;;4997710;28;20045;-63
2024/01/04 05:00:24;;;;;;;4.07;0.70;;;8.90;81.00;;;;;;5010981;28;20141;-63
2024/01/04 05:02:50;;;;;;;3.35;0.65;;;8.90;81.00;;;;;;5004837;28;20080;-62
2024/01/04 05:05:16;;;;;;;2.08;0.40;;;9.00;81.00;;;;;;4998980;28;20026;-63
2024/01/04 05:07:41;;;;;;;2.28;0.35;;;8.90;81.00;;;;;;5004775;28;20508;-63
2024/01/04 05:10:07;;;;;;;1.55;0.40;;;8.90;81.10;;;;;;5004624;28;20049;-62
2024/01/04 05:12:33;;;;;;;1.25;0.20;;;8.90;81.00;;;;;;5011696;28;20034;-64
2024/01/04 05:14:59;;;;;;;2.63;0.40;;;8.90;81.00;;;;;;5004835;28;20065;-63
2024/01/04 05:17:25;;;;;;;0.75;0.20;;;8.90;81.00;;;;;;4997551;28;20057;-62
2024/01/04 05:19:51;;;;;;;2.22;0.50;;;8.90;80.90;;;;;;5006614;28;20030;-60
2024/01/04 05:22:17;;;;;;;1.33;0.25;;;8.90;80.90;;;;;;5005060;28;20034;-63
2024/01/04 05:24:42;;;;;;;2.97;0.40;;;8.90;80.90;;;;;;5001455;28;20103;-62
2024/01/04 05:27:08;;;;;;;2.08;0.50;;;8.90;80.90;;;;;;5005453;28;20033;-62
2024/01/04 05:29:33;;;;;;;2.60;0.30;;;8.90;80.90;;;;;;4994486;28;20035;-61
2024/01/04 05:31:59;;;;;;;2.40;0.50;;;8.90;81.00;;;;;;4998503;28;20116;-62
2024/01/04 05:34:25;;;;;;;2.22;0.38;;;8.90;81.00;;;;;;4998058;28;20046;-63
2024/01/04 05:36:51;;;;;;;1.20;0.30;;;8.80;81.00;;;;;;5005547;28;20437;-61
2024/01/04 05:39:17;;;;;;;1.90;1.02;;;8.80;80.90;;;;;;5002190;28;20040;-63
2024/01/04 05:41:42;;;;;;;3.53;0.75;;;8.80;81.00;;;;;;4996851;28;20041;-62
2024/01/04 05:44:08;;;;;;;0.93;0.52;;;8.80;81.10;;;;;;5001858;28;20591;-62
2024/01/04 05:46:33;;;;;;;2.85;0.40;;;8.80;81.10;;;;;;4999463;28;20026;-63
2024/01/04 05:49:00;;;;;;;2.60;0.40;;;8.80;81.20;;;;;;4998458;28;20079;-63
2024/01/04 05:51:26;;;;;;;2.13;0.50;;;8.70;81.20;;;;;;5006152;28;20506;-63
2024/01/04 05:53:51;;;;;;;3.72;0.50;;;8.70;81.30;;;;;;5002382;28;20052;-63
2024/01/04 05:56:17;;;;;;;1.92;0.40;;;8.70;81.40;;;;;;5005518;28;20029;-62
2024/01/04 05:58:43;;;;;;;2.47;0.40;;;8.70;81.30;;;;;;4995999;28;20034;-63
2024/01/04 06:01:08;;;;;;;3.38;0.50;;;8.70;81.40;;;;;;5002593;28;20409;-63
2024/01/04 06:03:34;;;;;;;1.90;0.40;;;8.70;81.40;;;;;;5004245;28;20030;-62
2024/01/04 06:06:00;;;;;;;1.08;0.22;;;8.70;81.50;;;;;;5009128;28;20042;-64
2024/01/04 06:08:25;;;;;;;1.92;0.45;;;8.60;81.50;;;;;;5001936;28;20072;-63
2024/01/04 06:10:51;;;;;;;1.15;0.20;;;8.70;81.50;;;;;;5003429;28;20062;-63
2024/01/04 06:13:18;;;;;;;1.05;0.22;;;8.60;81.50;;;;;;4998061;28;20030;-63
2024/01/04 06:15:45;;;;;;;2.83;0.50;;;8.70;81.70;;;;;;5004887;28;20042;-63
2024/01/04 06:18:11;;;;;;;3.75;0.40;;;8.70;81.70;;;;;;5003792;28;20042;-63
2024/01/04 06:20:38;;;;;;;1.20;0.35;;;8.70;81.70;;;;;;5010130;28;20037;-63
2024/01/04 06:23:04;;;;;;;1.73;0.40;;;8.70;81.90;;;;;;4999389;28;20038;-63
2024/01/04 06:25:30;;;;;;;1.67;0.30;;;8.60;81.90;;;;;;5009501;28;20435;-63
2024/01/04 06:27:56;;;;;;;2.08;0.40;;;8.70;82.00;;;;;;4997797;28;20157;-61
2024/01/04 06:30:22;;;;;;;1.67;0.40;;;8.70;82.00;;;;;;4995818;28;20038;-63
2024/01/04 06:32:47;;;;;;;2.70;0.32;;;8.70;82.00;;;;;;4995491;28;20041;-62
2024/01/04 06:35:13;;;;;;;1.02;0.30;;;8.70;82.00;;;;;;5001987;28;20030;-63
2024/01/04 06:37:39;;;;;;;1.55;0.28;;;8.70;82.00;;;;;;4994807;28;20022;-63
2024/01/04 06:40:07;;;;;;;4.60;0.40;;;8.60;82.00;;;;;;5007027;28;20528;-64
2024/01/04 06:42:33;;;;;;;2.47;0.50;;;8.70;82.00;;;;;;4998663;28;20030;-63
2024/01/04 06:44:58;;;;;;;2.35;0.30;;;8.60;81.90;;;;;;5008408;28;20033;-63
2024/01/04 06:47:24;;;;;;;3.72;0.47;;;8.60;81.90;;;;;;5000900;28;21028;-63
2024/01/04 06:49:50;;;;;;;0.70;0.20;;;8.60;82.00;;;;;;4999348;28;20039;-64
2024/01/04 06:52:15;;;;;;;1.92;0.15;;;8.60;82.00;;;;;;5001348;28;20032;-63
2024/01/04 06:54:41;;;;;;;1.02;0.30;;;8.60;82.00;;;;;;4998627;28;20037;-64
2024/01/04 06:57:06;;;;;;;1.63;0.20;;;8.60;82.10;;;;;;5009463;28;20160;-64
2024/01/04 06:59:33;;;;;;;1.15;0.25;;;8.50;82.10;;;;;;4998999;28;20030;-63
2024/01/04 07:01:59;;;;;;;2.10;0.50;;;8.50;82.00;;;;;;4995602;28;20052;-63
2024/01/04 07:04:24;;;;;;;1.27;0.38;;;8.50;82.20;;;;;;5008930;28;21303;-63
2024/01/04 07:06:50;;;;;;;0.90;0.20;;;8.50;82.20;;;;;;5002550;28;20030;-64
2024/01/04 07:09:16;;;;;;;1.05;0.32;;;8.50;82.40;;;;;;5002294;28;20032;-62
2024/01/04 07:11:41;;;;;;;1.02;0.20;;;8.50;82.40;;;;;;5003743;28;20034;-63
2024/01/04 07:14:09;;;;;;;1.63;0.30;;;8.40;82.40;;;;;;5008156;28;20541;-63
2024/01/04 07:16:41;;;;;;;2.03;0.30;;;8.40;82.60;;;;;;4995034;28;20105;-63
2024/01/04 07:19:07;;;;;;;2.33;0.30;;;8.40;82.70;;;;;;5001448;28;20042;-63
2024/01/04 07:21:33;;;;;;;1.02;0.40;;;8.40;82.90;;;;;;5005386;28;20034;-64
2024/01/04 07:23:59;;;;;;;1.30;0.35;;;8.40;83.10;;;;;;4998472;28;20049;-62
2024/01/04 07:26:25;;;;;;;1.65;0.60;;;8.40;83.20;;;;;;4995158;28;21138;-63
2024/01/04 07:28:50;;;;;;;1.73;0.57;;;8.40;83.30;;;;;;5002928;28;20939;-63
2024/01/04 07:31:16;;;;;;;2.55;0.52;;;8.40;83.40;;;;;;4992028;28;20045;-61
2024/01/04 07:33:41;;;;;;;2.97;0.80;;;8.40;83.50;;;;;;4997945;28;20494;-64
2024/01/04 07:36:07;;;;;;;1.73;0.75;;;8.30;83.60;;;;;;4996282;28;20035;-63
2024/01/04 07:38:34;;;;;;;1.00;0.30;;;8.40;83.80;;;;;;4991585;28;20353;-62
2024/01/04 07:41:00;;;;;;;1.75;0.57;;;8.30;84.00;;;;;;4994487;28;20497;-63
2024/01/04 07:43:25;;;;;;;4.22;0.50;;;8.30;83.90;;;;;;4996679;28;20042;-63
2024/01/04 07:45:51;;;;;;;3.90;0.70;;;8.40;84.10;;;;;;4993869;28;20482;-63
2024/01/04 07:48:17;;;;;;;1.83;0.57;;;8.40;84.20;;;;;;4995028;28;20403;-63
2024/01/04 07:50:42;;;;;;;2.28;0.50;;;8.40;84.30;;;;;;4993627;28;20398;-63
2024/01/04 07:53:08;;;;;;;2.05;0.55;;;8.40;84.20;;;;;;4993812;28;20096;-63
2024/01/04 07:55:33;;;;;;;2.78;0.55;;;8.40;84.10;;;;;;4997398;28;20097;-63
2024/01/04 07:57:59;;;;;;;2.83;0.60;;;8.40;84.30;;;;;;4994310;28;20130;-64
2024/01/04 08:00:24;;;;;;;3.05;0.60;;;8.40;84.10;;;;;;4996111;28;20066;-63
2024/01/04 08:02:51;;;;;;;3.47;0.85;;;8.40;84.10;;;;;;4996726;28;20046;-63
2024/01/04 08:05:17;;;;;;;3.63;0.52;;;8.40;84.20;;;;;;4992191;28;20044;-63
2024/01/04 08:07:43;;;;;;;2.75;0.50;;;8.40;84.10;;;;;;4991147;28;20434;-62
2024/01/04 08:10:09;;;;;;;3.33;0.52;;;8.40;84.10;;;;;;4997732;28;20111;-63
2024/01/04 08:12:35;;;;;;;3.78;0.50;;;8.40;84.10;;;;;;5003521;28;20117;-61
2024/01/04 08:15:00;;;;;;;4.60;1.00;;;8.40;84.90;;;;;;4999804;28;20581;-63
2024/01/04 08:17:26;;;;;;;5.28;1.35;;;8.50;84.20;;;;;;4999112;28;20038;-63
2024/01/04 08:19:52;;;;;;;6.63;1.13;;;8.50;84.10;;;;;;5000969;28;20146;-63
2024/01/04 08:22:17;;;;;;;3.65;0.80;;;8.50;84.20;;;;;;4993633;28;20049;-63
2024/01/04 08:24:43;;;;;;;3.13;0.65;;;8.50;84.00;;;;;;4997142;28;20038;-63
2024/01/04 08:27:08;;;;;;;3.85;0.75;;;8.50;83.80;;;;;;4998447;28;20105;-62
2024/01/04 08:29:34;;;;;;;3.28;0.75;;;8.60;83.70;;;;;;4994473;28;20109;-64
2024/01/04 08:32:00;;;;;;;3.05;0.60;;;8.60;83.60;;;;;;4995617;28;20042;-63
2024/01/04 08:34:27;;;;;;;5.35;1.08;;;8.60;83.60;;;;;;5000475;28;20046;-64
2024/01/04 08:36:52;;;;;;;4.65;0.70;;;8.60;83.60;;;;;;4999873;28;20510;-63
2024/01/04 08:39:18;;;;;;;5.65;1.02;;;8.60;83.50;;;;;;4993736;28;20042;-63
2024/01/04 08:41:43;;;;;;;4.32;0.82;;;8.70;83.60;;;;;;4993024;28;20388;-63
2024/01/04 08:44:09;;;;;;;5.47;0.80;;;8.60;83.50;;;;;;4996559;28;20038;-63
2024/01/04 08:46:37;;;;;;;6.60;1.02;;;8.70;83.60;;;;;;4994365;28;20034;-61
2024/01/04 08:49:04;;;;;;;3.40;0.80;;;8.70;83.70;;;;;;4999618;28;20038;-63
2024/01/04 08:51:29;;;;;;;4.10;0.50;;;8.70;83.70;;;;;;5000905;28;20030;-61
2024/01/04 08:53:55;;;;;;;2.97;0.77;;;8.70;83.60;;;;;;4998111;28;20030;-62
2024/01/04 08:56:21;;;;;;;5.13;0.77;;;8.70;83.50;;;;;;5000518;28;20033;-63
2024/01/04 08:58:47;;;;;;;4.75;1.08;;;8.80;83.40;;;;;;4998244;28;20498;-62
2024/01/04 09:01:12;;;;;;;2.60;0.50;;;8.80;83.40;;;;;;4995934;28;20065;-63
2024/01/04 09:03:38;;;;;;;2.42;0.75;;;9.00;83.30;;;;;;5002050;28;20517;-62
2024/01/04 09:06:06;;;;;;;4.95;0.88;;;8.80;83.10;;;;;;5000917;28;20505;-63
2024/01/04 09:08:35;;;;;;;3.42;0.60;;;8.90;83.10;;;;;;4999609;28;20120;-63
2024/01/04 09:11:01;;;;;;;4.38;0.82;;;8.90;83.10;;;;;;4998550;28;20027;-62
2024/01/04 09:13:27;;;;;;;5.18;1.10;;;8.90;83.00;;;;;;5005466;28;20045;-62
2024/01/04 09:15:52;;;;;;;3.63;0.65;;;8.90;82.90;;;;;;5006564;28;20042;-62
2024/01/04 09:18:19;;;;;;;4.50;0.88;;;9.00;82.90;;;;;;5005031;28;20042;-63
2024/01/04 09:20:45;;;;;;;3.65;1.00;;;9.00;82.90;;;;;;5003223;28;20061;-60
2024/01/04 09:23:10;;;;;;;5.20;0.70;;;9.00;82.90;;;;;;4999394;28;20074;-63
2024/01/04 09:25:36;;;;;;;3.45;0.77;;;9.10;82.70;;;;;;5003370;28;20034;-62
2024/01/04 09:28:02;;;;;;;4.05;1.02;;;9.10;82.60;;;;;;5006160;28;20080;-63
2024/01/04 09:30:29;;;;;;;5.82;0.90;;;9.20;82.60;;;;;;5003963;28;20163;-63
2024/01/04 09:32:54;;;;;;;3.17;0.80;;;9.20;82.60;;;;;;5001826;28;20520;-63
2024/01/04 09:35:22;;;;;;;5.10;1.02;;;9.20;82.50;;;;;;5002037;28;20030;-63
2024/01/04 09:37:50;;;;;;;7.28;0.85;;;9.30;82.30;;;;;;5007128;28;20139;-62
2024/01/04 09:40:16;;;;;;;4.10;1.10;;;9.30;82.40;;;;;;4998280;28;20026;-63
2024/01/04 09:42:43;;;;;;;4.35;0.80;;;9.30;82.40;;;;;;4998014;28;20037;-61
2024/01/04 09:45:13;;;;;;;4.65;0.80;;;9.40;82.10;;;;;;4999098;28;21584;-63
2024/01/04 09:47:42;;;;;;;6.90;1.00;;;9.50;82.00;;;;;;4996904;28;20080;-63
2024/01/04 09:50:12;;;;;;;4.45;0.95;;;9.50;81.30;;;;;;4995288;28;20053;-63
2024/01/04 09:52:44;;;;;;;3.38;0.80;;;9.60;81.20;;;;;;5001732;28;20038;-63
2024/01/04 09:55:09;;;;;;;3.63;0.85;;;9.50;80.30;;;;;;4999981;28;20041;-64
2024/01/04 09:57:35;;;;;;;5.55;1.05;;;9.60;80.10;;;;;;5003880;28;20033;-62
2024/01/04 10:00:02;;;;;;;6.75;0.93;;;9.60;79.60;;;;;;5003139;28;20414;-63
2024/01/04 10:02:29;;;;;;;4.50;0.65;;;9.60;80.00;;;;;;5005028;28;20072;-63
2024/01/04 10:04:56;;;;;;;3.78;0.70;;;9.60;80.30;;;;;;5008136;28;20089;-64
2024/01/04 10:07:26;;;;;;;5.25;1.00;;;9.60;80.20;;;;;;4998688;28;20422;-61
2024/01/04 10:10:06;;;;;;;6.63;1.13;;;9.70;79.80;;;;;;5002901;28;20034;-63
2024/01/04 10:12:32;;;;;;;8.27;1.25;;;9.70;79.60;;;;;;5003338;28;20041;-62
2024/01/04 10:14:59;;;;;;;3.85;0.65;;;9.80;80.00;;;;;;5004081;28;20030;-61
2024/01/04 10:17:24;;;;;;;3.30;0.65;;;9.80;79.40;;;;;;5004807;28;20115;-62
2024/01/04 10:19:50;;;;;;;4.60;0.88;;;9.80;78.70;;;;;;5005676;28;20708;-63
2024/01/04 10:22:20;;;;;;;4.50;0.77;;;9.80;78.90;;;;;;5005270;28;20057;-63
2024/01/04 10:24:47;;;;;;;4.00;0.90;;;9.80;78.80;;;;;;5000251;28;20048;-62
2024/01/04 10:27:15;;;;;;;3.15;0.60;;;9.80;78.90;;;;;;5003581;28;20045;-62
2024/01/04 10:29:43;;;;;;;4.40;0.80;;;9.80;79.70;;;;;;5003817;28;20053;-63
2024/01/04 10:32:13;;;;;;;6.65;1.33;;;9.80;79.10;;;;;;5001041;28;20531;-63
2024/01/04 10:34:39;;;;;;;4.60;0.70;;;9.90;78.80;;;;;;5005604;28;20037;-63
2024/01/04 10:37:08;;;;;;;7.40;1.65;;;9.80;78.80;;;;;;5007438;28;20034;-62
2024/01/04 10:39:37;;;;;;;4.13;1.10;;;9.90;78.30;;;;;;5002046;28;20030;-63
2024/01/04 10:42:05;;;;;;;3.55;0.90;;;9.90;78.70;;;;;;5008105;28;20091;-63
2024/01/04 10:44:34;;;;;;;5.03;0.70;;;9.80;78.40;;;;;;5002803;28;21077;-62
2024/01/04 10:47:04;;;;;;;5.18;0.80;;;9.90;78.60;;;;;;5007116;28;20559;-62
2024/01/04 10:49:30;;;;;;;3.10;0.52;;;9.90;78.80;;;;;;5006927;28;20546;-61
2024/01/04 10:52:03;;;;;;;6.82;1.30;;;9.90;79.10;;;;;;5004584;28;20133;-61
2024/01/04 10:54:33;;;;;;;3.60;0.65;;;10.00;79.00;;;;;;5007021;28;20041;-60
2024/01/04 10:57:02;;;;;;;2.53;0.70;;;10.00;78.30;;;;;;5008687;28;20050;-60
2024/01/04 10:59:29;;;;;;;3.58;0.60;;;10.00;78.50;;;;;;5005569;28;20521;-60
2024/01/04 11:01:59;;;;;;;4.05;0.70;;;10.10;78.70;;;;;;5005350;28;20038;-63
2024/01/04 11:04:30;;;;;;;2.80;0.70;;;10.10;78.20;;;;;;5004953;28;20069;-62
2024/01/04 11:06:57;;;;;;;2.67;0.52;;;10.20;78.30;;;;;;5006235;28;20045;-61
2024/01/04 11:09:24;;;;;;;2.97;0.70;;;10.20;77.70;;;;;;5000405;28;20038;-63
2024/01/04 11:11:54;;;;;;;6.60;1.00;;;10.30;77.50;;;;;;5006351;28;20038;-63
2024/01/04 11:14:23;;;;;;;3.42;0.75;;;10.30;77.50;;;;;;4997287;28;20038;-63
2024/01/04 11:17:16;;;;;;;2.05;0.40;;;10.40;77.50;;;;;;5000772;28;20031;-64
2024/01/04 11:19:59;;;;;;;3.33;0.47;;;10.40;76.40;;;;;;5001033;28;20057;-62
2024/01/04 11:22:27;;;;;;;3.05;0.70;;;10.50;76.90;;;;;;5000561;28;20042;-62
2024/01/04 11:24:55;;;;;;;2.17;0.60;;;10.50;76.50;;;;;;5006717;28;20084;-62
2024/01/04 11:27:23;;;;;;;2.33;0.40;;;10.60;76.60;;;;;;5001085;28;20117;-61
2024/01/04 11:29:49;;;;;;;2.78;0.40;;;10.60;76.10;;;;;;4999161;28;20042;-63
2024/01/04 11:32:16;;;;;;;2.63;0.47;;;10.60;75.40;;;;;;5006897;28;20088;-60
2024/01/04 11:34:44;;;;;;;2.65;0.60;;;10.60;75.30;;;;;;4999600;28;20100;-61
2024/01/04 11:37:20;;;;;;;2.20;0.68;;;10.60;75.40;;;;;;5005584;28;20378;-61
2024/01/04 11:39:59;;;;;;;4.15;0.57;;;10.70;74.60;;;;;;4999142;28;20119;-63
2024/01/04 11:42:39;;;;;;;2.35;0.55;;;10.70;73.60;;;;;;4999159;28;20030;-61
2024/01/04 11:45:16;;;;;;;2.50;0.50;;;10.70;74.10;;;;;;5007773;28;20030;-63
2024/01/04 11:47:51;;;;;;;2.15;0.50;;;10.70;74.20;;;;;;5005681;28;20517;-63
2024/01/04 11:50:30;;;;;;;3.97;0.50;;;10.70;74.70;;;;;;5005236;28;20124;-60
2024/01/04 11:53:07;;;;;;;3.75;0.57;;;10.70;74.70;;;;;;5006694;28;20026;-60
2024/01/04 11:55:35;;;;;;;2.58;0.77;;;10.80;75.10;;;;;;5000346;28;20030;-61
2024/01/04 11:58:08;;;;;;;3.63;0.80;;;10.90;74.90;;;;;;5004741;28;20049;-62
2024/01/04 12:00:36;;;;;;;3.90;0.60;;;10.90;74.50;;;;;;5003258;28;20053;-63
2024/01/04 12:03:12;;;;;;;3.38;0.70;;;11.00;75.00;;;;;;5000738;28;20195;-63
2024/01/04 12:05:37;;;;;;;4.88;0.70;;;11.00;74.60;;;;;;4990259;28;20041;-62
2024/01/04 12:08:03;;;;;;;3.65;0.90;;;11.00;74.20;;;;;;5000391;28;20502;-60
2024/01/04 12:10:29;;;;;;;1.92;0.63;;;11.10;74.20;;;;;;4995704;28;20049;-59
2024/01/04 12:12:54;;;;;;;2.85;0.90;;;11.10;74.40;;;;;;5001074;28;20034;-61
2024/01/04 12:15:21;;;;;;;3.70;0.70;;;11.10;74.50;;;;;;4994465;28;20034;-63
2024/01/04 12:17:46;;;;;;;2.90;0.63;;;11.10;74.40;;;;;;4995932;28;20215;-63
2024/01/04 12:20:12;;;;;;;1.33;0.35;;;11.10;74.60;;;;;;4995233;28;20092;-62
2024/01/04 12:22:38;;;;;;;2.35;0.68;;;11.10;74.70;;;;;;5000967;28;20329;-63
2024/01/04 12:25:06;;;;;;;1.17;0.40;;;11.20;74.30;;;;;;5000324;28;20038;-62
2024/01/04 12:27:33;;;;;;;2.05;0.47;;;11.10;74.30;;;;;;5002628;28;20530;-62
2024/01/04 12:29:58;;;;;;;2.75;0.52;;;11.10;74.20;;;;;;5001316;28;20052;-65
2024/01/04 12:32:25;;;;;;;2.58;0.50;;;11.00;74.20;;;;;;4998309;28;20042;-61
2024/01/04 12:34:53;;;;;;;1.55;0.47;;;11.00;74.30;;;;;;5002037;28;20428;-63
2024/01/04 12:37:18;;;;;;;1.80;0.98;;;10.90;74.50;;;;;;5005305;28;20054;-63
2024/01/04 12:39:44;;;;;;;4.32;0.75;;;10.90;74.50;;;;;;4996216;28;20033;-62
2024/01/04 12:42:12;;;;;;;3.60;0.43;;;10.90;74.80;;;;;;5004825;28;20121;-62
2024/01/04 12:44:37;;;;;;;1.92;0.45;;;10.80;75.00;;;;;;5000027;28;20034;-62
2024/01/04 12:47:04;;;;;;;1.92;0.50;;;10.80;75.00;;;;;;5002937;28;20095;-61
2024/01/04 12:49:30;;;;;;;2.55;0.60;;;10.80;75.20;;;;;;5003231;28;20041;-63
2024/01/04 12:51:55;;;;;;;2.33;0.68;;;10.70;74.60;;;;;;5002361;28;20117;-63